createdAt,value
2018-07-25T00:00:15.919Z,1.30
2018-07-25T00:03:12.020Z,1.47
2018-07-25T00:06:08.115Z,1.94
2018-07-25T00:09:07.579Z,1.38
2018-07-25T00:12:03.717Z,1.37
2018-07-25T00:15:00.343Z,1.62
2018-07-25T00:17:57.155Z,1.14
2018-07-25T00:20:53.644Z,1.07
2018-07-25T00:23:49.876Z,1.40
2018-07-25T00:26:46.485Z,1.22
2018-07-25T00:29:43.094Z,1.20
2018-07-25T00:32:39.961Z,1.72
2018-07-25T00:35:36.804Z,1.14
2018-07-25T00:38:33.312Z,1.22
2018-07-25T00:41:29.634Z,1.40
2018-07-25T00:44:26.291Z,1.90
2018-07-25T00:47:22.377Z,1.30
2018-07-25T00:50:18.480Z,1.39
2018-07-25T00:53:14.918Z,1.25
2018-07-25T00:56:11.665Z,1.30
2018-07-25T00:59:08.766Z,1.11
2018-07-25T01:02:05.435Z,1.93
2018-07-25T01:05:01.948Z,1.16
2018-07-25T01:07:58.009Z,1.29
2018-07-25T01:10:54.714Z,1.11
2018-07-25T01:13:51.404Z,1.01
2018-07-25T01:16:47.473Z,1.42
2018-07-25T01:19:43.862Z,1.11
2018-07-25T01:22:39.919Z,1.21
2018-07-25T01:25:36.126Z,1.31
2018-07-25T01:28:32.417Z,1.05
2018-07-25T01:31:28.803Z,1.00
2018-07-25T01:34:25.765Z,0.90
2018-07-25T01:37:21.824Z,2.04
2018-07-25T01:40:18.522Z,1.10
2018-07-25T01:43:15.069Z,1.37
2018-07-25T01:46:11.599Z,1.22
2018-07-25T01:49:07.658Z,1.10
2018-07-25T01:52:04.187Z,1.16
2018-07-25T01:55:01.056Z,1.36
2018-07-25T01:57:57.848Z,1.14
2018-07-25T02:00:54.252Z,1.24
2018-07-25T02:03:50.735Z,1.61
2018-07-25T02:06:47.138Z,1.14
2018-07-25T02:09:42.964Z,0.99
2018-07-25T02:12:39.531Z,1.52
2018-07-25T02:15:36.389Z,1.00
2018-07-25T02:18:32.876Z,1.02
2018-07-25T02:21:29.598Z,1.32
2018-07-25T02:24:25.682Z,1.53
2018-07-25T02:27:22.069Z,1.05
2018-07-25T02:30:18.896Z,1.00
2018-07-25T02:33:15.747Z,1.22
2018-07-25T02:36:12.025Z,1.42
2018-07-25T02:39:09.747Z,1.44
2018-07-25T02:42:06.332Z,1.28
2018-07-25T02:45:02.171Z,2.43
2018-07-25T02:47:58.151Z,1.50
2018-07-25T02:50:54.627Z,1.30
2018-07-25T02:53:51.080Z,2.27
2018-07-25T02:56:47.379Z,1.50
2018-07-25T02:59:43.809Z,1.67
2018-07-25T03:02:40.611Z,1.70
2018-07-25T03:05:37.258Z,2.40
2018-07-25T03:08:33.323Z,3.12
2018-07-25T03:11:29.747Z,3.68
2018-07-25T03:14:26.559Z,3.60
2018-07-25T03:17:23.058Z,8.28
2018-07-25T03:20:19.458Z,4.79
2018-07-25T03:23:15.577Z,6.01
2018-07-25T03:26:12.560Z,3.44
2018-07-25T03:29:08.610Z,4.70
2018-07-25T03:32:04.519Z,4.54
2018-07-25T03:35:00.324Z,4.32
2018-07-25T03:37:56.348Z,6.47
2018-07-25T03:40:52.402Z,5.62
2018-07-25T03:43:48.797Z,3.44
2018-07-25T03:46:45.405Z,2.80
2018-07-25T03:49:41.466Z,3.20
2018-07-25T03:52:37.877Z,2.78
2018-07-25T03:55:34.078Z,3.23
2018-07-25T03:58:30.423Z,2.64
2018-07-25T04:01:26.505Z,2.59
2018-07-25T04:04:22.704Z,3.51
2018-07-25T04:07:19.118Z,3.74
2018-07-25T04:10:15.918Z,2.72
2018-07-25T04:13:12.443Z,2.54
2018-07-25T04:16:08.925Z,1.79
2018-07-25T04:19:04.819Z,2.24
2018-07-25T04:22:00.792Z,2.43
2018-07-25T04:24:57.287Z,2.07
2018-07-25T04:27:54.180Z,2.00
2018-07-25T04:30:50.913Z,3.13
2018-07-25T04:33:47.733Z,2.51
2018-07-25T04:36:43.896Z,2.04
2018-07-25T04:39:40.210Z,2.35
2018-07-25T04:42:37.471Z,2.22
2018-07-25T04:45:33.765Z,2.30
2018-07-25T04:48:30.172Z,2.07
2018-07-25T04:51:26.262Z,3.82
2018-07-25T04:54:22.725Z,2.55
2018-07-25T04:57:18.575Z,2.00
2018-07-25T05:00:15.195Z,4.34
2018-07-25T05:03:12.108Z,2.55
2018-07-25T05:06:08.564Z,2.38
2018-07-25T05:09:07.437Z,1.82
2018-07-25T05:12:04.068Z,2.09
2018-07-25T05:15:00.994Z,1.63
2018-07-25T05:17:57.587Z,2.04
2018-07-25T05:20:53.578Z,2.23
2018-07-25T05:23:50.028Z,1.93
2018-07-25T05:26:46.099Z,2.83
2018-07-25T05:29:42.499Z,2.26
2018-07-25T05:32:39.372Z,2.07
2018-07-25T05:35:35.554Z,1.88
2018-07-25T05:38:31.945Z,1.96
2018-07-25T05:41:27.745Z,2.43
2018-07-25T05:44:23.519Z,4.77
2018-07-25T05:47:19.502Z,2.01
2018-07-25T05:50:15.909Z,2.76
2018-07-25T05:53:12.515Z,2.17
2018-07-25T05:56:08.813Z,3.08
2018-07-25T05:59:05.566Z,2.08
2018-07-25T06:02:02.121Z,4.33
2018-07-25T06:04:58.907Z,3.91
2018-07-25T06:07:55.761Z,3.31
2018-07-25T06:10:52.344Z,5.81
2018-07-25T06:13:48.875Z,2.00
2018-07-25T06:16:45.265Z,1.98
2018-07-25T06:19:42.157Z,2.46
2018-07-25T06:22:38.938Z,2.53
2018-07-25T06:25:35.803Z,2.89
2018-07-25T06:28:32.627Z,3.42
2018-07-25T06:31:29.174Z,2.57
2018-07-25T06:34:25.214Z,2.83
2018-07-25T06:37:21.675Z,2.54
2018-07-25T06:40:18.355Z,4.61
2018-07-25T06:43:14.254Z,5.02
2018-07-25T06:46:12.726Z,3.66
2018-07-25T06:49:09.042Z,3.84
2018-07-25T06:52:05.876Z,3.91
2018-07-25T06:55:03.931Z,2.83
2018-07-25T06:58:00.360Z,4.09
2018-07-25T07:00:56.878Z,3.75
2018-07-25T07:03:53.812Z,2.77
2018-07-25T07:06:50.558Z,3.76
2018-07-25T07:09:46.987Z,4.59
2018-07-25T07:12:43.089Z,6.88
2018-07-25T07:15:39.760Z,5.76
2018-07-25T07:18:36.175Z,5.17
2018-07-25T07:21:32.282Z,6.27
2018-07-25T07:24:29.069Z,4.88
2018-07-25T07:27:25.498Z,7.23
2018-07-25T07:30:21.627Z,6.30
2018-07-25T07:33:17.774Z,4.20
2018-07-25T07:36:13.896Z,7.73
2018-07-25T07:39:12.601Z,4.65
2018-07-25T07:42:08.681Z,5.20
2018-07-25T07:45:07.327Z,3.23
2018-07-25T07:48:03.709Z,5.36
2018-07-25T07:50:59.812Z,4.42
2018-07-25T07:53:57.649Z,4.24
2018-07-25T07:56:53.753Z,4.48
2018-07-25T07:59:50.627Z,4.41
2018-07-25T08:02:47.007Z,4.63
2018-07-25T08:05:43.739Z,4.05
2018-07-25T08:08:39.863Z,2.23
2018-07-25T08:11:36.467Z,3.00
2018-07-25T08:14:33.922Z,3.65
2018-07-25T08:17:30.612Z,3.34
2018-07-25T08:20:27.046Z,3.58
2018-07-25T08:23:23.693Z,3.59
2018-07-25T08:26:20.077Z,2.70
2018-07-25T08:29:16.777Z,4.85
2018-07-25T08:32:13.683Z,5.25
2018-07-25T08:35:10.285Z,3.45
2018-07-25T08:38:06.980Z,4.91
2018-07-25T08:41:03.376Z,3.55
2018-07-25T08:44:00.098Z,4.47
2018-07-25T08:46:56.613Z,6.18
2018-07-25T08:49:52.859Z,3.84
2018-07-25T08:52:49.488Z,4.48
2018-07-25T08:55:45.893Z,3.92
2018-07-25T08:58:42.281Z,2.38
2018-07-25T09:01:38.717Z,6.29
2018-07-25T09:04:35.335Z,3.17
2018-07-25T09:07:31.850Z,2.60
2018-07-25T09:10:28.182Z,3.77
2018-07-25T09:13:24.569Z,3.69
2018-07-25T09:16:21.266Z,4.48
2018-07-25T09:19:17.946Z,2.69
2018-07-25T09:22:14.663Z,3.35
2018-07-25T09:25:11.444Z,3.88
2018-07-25T09:28:07.803Z,3.04
2018-07-25T09:31:04.518Z,4.70
2018-07-25T09:34:01.295Z,2.73
2018-07-25T09:36:57.361Z,5.77
2018-07-25T09:39:53.978Z,2.57
2018-07-25T09:42:50.692Z,3.06
2018-07-25T09:45:47.402Z,3.25
2018-07-25T09:48:43.542Z,3.42
2018-07-25T09:51:40.121Z,2.64
2018-07-25T09:54:36.807Z,2.51
2018-07-25T09:57:33.492Z,2.86
2018-07-25T10:00:35.589Z,2.86
2018-07-25T10:03:31.979Z,3.41
2018-07-25T10:06:28.703Z,3.32
2018-07-25T10:09:25.092Z,2.84
2018-07-25T10:12:21.485Z,2.61
2018-07-25T10:15:17.939Z,2.66
2018-07-25T10:18:14.505Z,2.68
2018-07-25T10:21:10.615Z,2.69
2018-07-25T10:24:07.422Z,3.04
2018-07-25T10:27:03.873Z,2.39
2018-07-25T10:29:59.918Z,3.41
2018-07-25T10:32:56.834Z,2.44
2018-07-25T10:35:52.876Z,3.53
2018-07-25T10:38:49.723Z,2.65
2018-07-25T10:41:46.196Z,2.72
2018-07-25T10:44:42.282Z,3.20
2018-07-25T10:47:38.402Z,2.94
2018-07-25T10:50:34.135Z,3.31
2018-07-25T10:53:29.852Z,2.53
2018-07-25T10:56:26.066Z,3.07
2018-07-25T10:59:22.198Z,3.18
2018-07-25T11:02:18.714Z,2.89
2018-07-25T11:05:14.833Z,3.71
2018-07-25T11:08:11.028Z,2.56
2018-07-25T11:11:07.148Z,2.74
2018-07-25T11:14:03.430Z,2.75
2018-07-25T11:17:00.263Z,2.77
2018-07-25T11:19:57.041Z,3.13
2018-07-25T11:22:53.535Z,2.51
2018-07-25T11:25:49.566Z,2.89
2018-07-25T11:28:46.360Z,3.19
2018-07-25T11:31:43.004Z,3.09
2018-07-25T11:34:39.072Z,2.96
2018-07-25T11:37:35.893Z,2.57
2018-07-25T11:40:32.267Z,4.00
2018-07-25T11:43:28.355Z,2.90
2018-07-25T11:46:25.108Z,2.55
2018-07-25T11:49:21.532Z,2.91
2018-07-25T11:52:17.641Z,3.12
2018-07-25T11:55:14.384Z,3.44
2018-07-25T11:58:10.948Z,2.76
2018-07-25T12:01:07.103Z,3.06
2018-07-25T12:04:03.169Z,3.78
2018-07-25T12:09:56.001Z,3.76
2018-07-25T12:12:52.818Z,3.19
2018-07-25T12:15:49.173Z,2.77
2018-07-25T12:18:45.263Z,3.29
2018-07-25T12:21:41.333Z,3.37
2018-07-25T12:24:38.153Z,3.69
2018-07-25T12:27:34.560Z,3.31
2018-07-25T12:30:30.637Z,3.17
2018-07-25T12:33:28.581Z,3.18
2018-07-25T12:36:25.033Z,3.04
2018-07-25T12:39:21.119Z,5.26
2018-07-25T12:42:17.963Z,3.33
2018-07-25T12:45:16.060Z,3.35
2018-07-25T12:48:12.168Z,3.08
2018-07-25T12:51:09.761Z,3.29
2018-07-25T12:54:06.384Z,2.67
2018-07-25T12:57:02.297Z,4.07
2018-07-25T12:59:59.049Z,3.39
2018-07-25T13:02:55.489Z,3.43
2018-07-25T13:05:52.562Z,2.58
2018-07-25T13:08:49.385Z,3.04
2018-07-25T13:11:45.767Z,2.66
2018-07-25T13:14:42.617Z,2.58
2018-07-25T13:17:38.998Z,2.85
2018-07-25T13:20:35.087Z,3.72
2018-07-25T13:23:31.171Z,3.14
2018-07-25T13:26:27.960Z,2.54
2018-07-25T13:29:24.212Z,2.83
2018-07-25T13:32:20.502Z,2.35
2018-07-25T13:35:16.379Z,2.55
2018-07-25T13:38:12.688Z,2.88
2018-07-25T13:41:08.822Z,2.47
2018-07-25T13:44:05.552Z,2.80
2018-07-25T13:47:01.710Z,2.50
2018-07-25T13:49:57.852Z,2.74
2018-07-25T13:52:54.732Z,2.80
2018-07-25T13:55:51.593Z,2.40
2018-07-25T13:58:47.996Z,2.38
2018-07-25T14:01:44.067Z,2.84
2018-07-25T14:04:40.850Z,2.37
2018-07-25T14:07:37.271Z,2.85
2018-07-25T14:10:33.981Z,2.79
2018-07-25T14:13:30.382Z,3.17
2018-07-25T14:16:26.445Z,2.77
2018-07-25T14:19:23.171Z,3.08
2018-07-25T14:22:19.260Z,2.60
2018-07-25T14:25:16.008Z,2.40
2018-07-25T14:28:12.316Z,2.39
2018-07-25T14:31:08.773Z,3.13
2018-07-25T14:34:05.146Z,2.52
2018-07-25T14:37:01.497Z,2.93
2018-07-25T14:39:58.466Z,3.55
2018-07-25T14:42:54.920Z,3.21
2018-07-25T14:45:51.236Z,4.06
2018-07-25T14:48:47.460Z,3.56
2018-07-25T14:51:44.254Z,3.62
2018-07-25T14:54:40.750Z,2.95
2018-07-25T14:57:37.481Z,2.97
2018-07-25T15:00:34.213Z,2.72
2018-07-25T15:03:30.307Z,3.15
2018-07-25T15:06:26.420Z,2.98
2018-07-25T15:09:23.309Z,3.51
2018-07-25T15:12:39.170Z,3.96
2018-07-25T15:15:35.488Z,2.52
2018-07-25T15:18:31.962Z,2.88
2018-07-25T15:21:28.050Z,2.94
2018-07-25T15:24:24.563Z,7.00
2018-07-25T15:27:21.042Z,6.91
2018-07-25T15:30:29.531Z,3.61
2018-07-25T15:33:25.690Z,4.01
2018-07-25T15:36:39.364Z,5.89
2018-07-25T15:39:35.960Z,4.62
2018-07-25T15:42:32.176Z,4.97
2018-07-25T15:45:28.414Z,4.63
2018-07-25T15:48:24.542Z,4.48
2018-07-25T15:51:21.023Z,4.33
2018-07-25T15:54:18.020Z,4.84
2018-07-25T15:57:14.557Z,4.78
2018-07-25T16:00:11.448Z,4.35
2018-07-25T16:03:08.336Z,4.64
2018-07-25T16:06:05.306Z,4.08
2018-07-25T16:09:01.363Z,3.88
2018-07-25T16:11:58.574Z,4.66
2018-07-25T16:14:55.498Z,3.70
2018-07-25T16:17:51.567Z,3.92
2018-07-25T16:20:48.033Z,3.66
2018-07-25T16:23:44.936Z,3.00
2018-07-25T16:26:41.521Z,3.18
2018-07-25T16:29:37.688Z,3.09
2018-07-25T16:32:33.690Z,5.27
2018-07-25T16:35:30.535Z,2.77
2018-07-25T16:38:26.993Z,3.25
2018-07-25T16:41:23.845Z,3.15
2018-07-25T16:44:20.704Z,3.56
2018-07-25T16:47:17.570Z,2.96
2018-07-25T16:50:14.383Z,3.45
2018-07-25T16:53:10.487Z,3.52
2018-07-25T16:56:06.946Z,2.87
2018-07-25T16:59:03.391Z,2.32
2018-07-25T17:01:59.779Z,2.45
2018-07-25T17:04:55.955Z,2.78
2018-07-25T17:07:52.801Z,3.14
2018-07-25T17:10:49.632Z,2.95
2018-07-25T17:13:46.053Z,3.26
2018-07-25T17:16:41.865Z,3.03
2018-07-25T17:19:37.608Z,3.52
2018-07-25T17:22:33.633Z,5.03
2018-07-25T17:25:30.379Z,3.50
2018-07-25T17:28:26.453Z,3.03
2018-07-25T17:31:22.737Z,2.74
2018-07-25T17:34:19.036Z,3.38
2018-07-25T17:37:15.900Z,2.87
2018-07-25T17:40:12.342Z,3.33
2018-07-25T17:43:08.749Z,3.42
2018-07-25T17:46:04.820Z,3.22
2018-07-25T17:49:00.881Z,4.31
2018-07-25T17:51:57.110Z,2.90
2018-07-25T17:54:53.569Z,3.40
2018-07-25T17:57:50.409Z,3.38
2018-07-25T18:00:47.297Z,3.46
2018-07-25T18:03:43.427Z,2.80
2018-07-25T18:06:40.266Z,2.48
2018-07-25T18:09:36.751Z,3.07
2018-07-25T18:12:32.948Z,3.92
2018-07-25T18:15:29.470Z,2.37
2018-07-25T18:18:25.635Z,2.60
2018-07-25T18:21:21.825Z,3.78
2018-07-25T18:24:19.015Z,3.73
2018-07-25T18:27:15.405Z,3.53
2018-07-25T18:30:11.475Z,3.57
2018-07-25T18:33:08.254Z,2.79
2018-07-25T18:36:05.147Z,2.69
2018-07-25T18:39:01.972Z,2.99
2018-07-25T18:41:58.558Z,2.40
2018-07-25T18:44:54.714Z,2.30
2018-07-25T18:47:51.108Z,3.53
2018-07-25T18:50:47.184Z,2.95
2018-07-25T18:53:43.257Z,2.63
2018-07-25T18:56:40.709Z,2.94
2018-07-25T18:59:36.806Z,2.00
2018-07-25T19:02:34.103Z,1.92
2018-07-25T19:05:30.951Z,2.71
2018-07-25T19:08:27.436Z,3.50
2018-07-25T19:11:24.267Z,2.37
2018-07-25T19:14:26.585Z,2.29
2018-07-25T19:17:22.971Z,5.73
2018-07-25T19:20:19.038Z,5.81
2018-07-25T19:23:15.436Z,6.73
2018-07-25T19:26:11.528Z,7.87
2018-07-25T19:29:08.571Z,3.90
2018-07-25T19:32:04.955Z,2.85
2018-07-25T19:35:01.124Z,3.28
2018-07-25T19:37:57.616Z,2.88
2018-07-25T19:40:54.497Z,3.30
2018-07-25T19:43:51.397Z,2.22
2018-07-25T19:46:48.289Z,2.29
2018-07-25T19:49:45.137Z,2.10
2018-07-25T19:52:42.061Z,2.82
2018-07-25T19:55:38.902Z,2.41
2018-07-25T19:58:35.795Z,2.10
2018-07-25T20:01:32.647Z,2.55
2018-07-25T20:04:28.716Z,2.56
2018-07-25T20:07:25.569Z,2.55
2018-07-25T20:10:22.316Z,3.08
2018-07-25T20:13:18.454Z,2.34
2018-07-25T20:16:14.881Z,2.03
2018-07-25T20:19:11.865Z,3.04
2018-07-25T20:22:08.374Z,2.39
2018-07-25T20:25:05.213Z,2.20
2018-07-25T20:28:01.763Z,2.76
2018-07-25T20:30:58.129Z,2.94
2018-07-25T20:33:54.693Z,2.57
2018-07-25T20:36:51.285Z,2.53
2018-07-25T20:39:47.564Z,3.02
2018-07-25T20:42:43.642Z,2.84
2018-07-25T20:45:40.392Z,2.82
2018-07-25T20:48:36.799Z,2.70
2018-07-25T20:51:32.878Z,2.92
2018-07-25T20:54:29.027Z,2.76
2018-07-25T20:57:25.399Z,2.74
2018-07-25T21:00:33.679Z,3.19
2018-07-25T21:03:30.753Z,3.19
2018-07-25T21:06:27.240Z,3.43
2018-07-25T21:09:23.667Z,2.74
2018-07-25T21:12:20.451Z,4.98
2018-07-25T21:15:18.768Z,3.12
2018-07-25T21:18:14.410Z,2.97
2018-07-25T21:21:11.180Z,4.36
2018-07-25T21:24:07.295Z,3.94
2018-07-25T21:27:03.353Z,3.58
2018-07-25T21:29:59.723Z,3.11
2018-07-25T21:32:56.547Z,3.09
2018-07-25T21:35:52.616Z,2.89
2018-07-25T21:38:49.361Z,3.00
2018-07-25T21:41:46.086Z,2.58
2018-07-25T21:44:43.640Z,2.68
2018-07-25T21:47:40.757Z,3.34
2018-07-25T21:50:37.475Z,3.34
2018-07-25T21:53:33.967Z,2.31
2018-07-25T21:56:30.086Z,3.12
2018-07-25T21:59:27.080Z,2.90
2018-07-25T22:02:23.963Z,2.73
2018-07-25T22:05:21.019Z,2.39
2018-07-25T22:08:17.668Z,2.55
2018-07-25T22:11:14.538Z,2.74
2018-07-25T22:14:11.257Z,3.81
2018-07-25T22:17:08.575Z,3.01
2018-07-25T22:20:06.244Z,2.62
2018-07-25T22:23:02.750Z,3.68
2018-07-25T22:25:59.609Z,3.34
2018-07-25T22:28:56.111Z,3.64
2018-07-25T22:31:52.918Z,4.27
2018-07-25T22:34:49.809Z,3.57
2018-07-25T22:37:46.310Z,3.83
2018-07-25T22:40:42.404Z,3.48
2018-07-25T22:43:38.904Z,4.02
2018-07-25T22:46:35.000Z,3.00
2018-07-25T22:49:31.430Z,2.76
2018-07-25T22:52:27.557Z,3.97
2018-07-25T22:55:24.092Z,3.00
2018-07-25T22:58:20.567Z,3.20
2018-07-25T23:01:16.650Z,3.50
2018-07-25T23:04:13.162Z,2.63
2018-07-25T23:07:09.727Z,2.68
2018-07-25T23:10:05.585Z,3.22
2018-07-25T23:13:01.754Z,3.27
2018-07-25T23:15:58.146Z,3.20
2018-07-25T23:18:54.260Z,4.01
2018-07-25T23:21:50.685Z,3.51
2018-07-25T23:24:47.025Z,3.26
2018-07-25T23:27:43.142Z,3.09
2018-07-25T23:30:38.875Z,3.36
2018-07-25T23:33:34.953Z,3.68
2018-07-25T23:36:31.338Z,4.30
2018-07-25T23:39:27.420Z,3.21
2018-07-25T23:42:23.845Z,2.89
2018-07-25T23:45:20.613Z,4.27
2018-07-25T23:48:17.167Z,3.56
2018-07-25T23:51:13.281Z,3.31
2018-07-25T23:54:09.460Z,3.17
2018-07-25T23:57:05.775Z,3.44
